createdAt,value
2019-03-15T00:30:29.928Z,75.51
2019-03-15T00:33:01.587Z,75.52
2019-03-15T00:35:32.101Z,75.51
2019-03-15T00:38:02.912Z,75.50
2019-03-15T00:40:33.514Z,75.53
2019-03-15T00:43:03.990Z,75.54
2019-03-15T00:45:34.388Z,75.55
2019-03-15T00:48:04.843Z,75.58
2019-03-15T00:50:35.141Z,75.60
2019-03-15T00:53:05.508Z,75.60
2019-03-15T00:55:36.266Z,75.61
2019-03-15T00:58:06.706Z,75.63
2019-03-15T01:00:37.108Z,75.63
2019-03-15T01:03:07.465Z,75.65
2019-03-15T01:05:37.868Z,75.64
2019-03-15T01:08:08.347Z,75.65
2019-03-15T01:10:38.664Z,75.66
2019-03-15T01:13:09.053Z,75.67
2019-03-15T01:15:41.625Z,75.69
2019-03-15T01:18:11.961Z,75.70
2019-03-15T01:20:42.487Z,75.71
2019-03-15T01:23:12.895Z,75.71
2019-03-15T01:25:44.141Z,75.78
2019-03-15T01:28:14.529Z,75.71
2019-03-15T01:30:44.974Z,75.72
2019-03-15T01:33:15.384Z,75.72
2019-03-15T01:35:45.881Z,75.74
2019-03-15T01:38:16.339Z,75.73
2019-03-15T01:40:48.820Z,75.66
2019-03-15T01:43:21.122Z,75.66
2019-03-15T01:45:52.855Z,75.77
2019-03-15T01:48:23.221Z,75.74
2019-03-15T01:50:53.799Z,75.57
2019-03-15T01:53:24.427Z,75.66
2019-03-15T01:55:56.953Z,75.66
2019-03-15T01:58:30.923Z,75.76
2019-03-15T02:01:01.338Z,75.77
2019-03-15T02:03:36.025Z,75.71
2019-03-15T02:06:06.337Z,75.82
2019-03-15T02:08:39.416Z,75.81
2019-03-15T02:11:09.874Z,75.83
2019-03-15T02:13:40.801Z,75.84
2019-03-15T02:16:11.212Z,75.82
2019-03-15T02:18:41.702Z,75.92
2019-03-15T02:21:12.104Z,75.92
2019-03-15T02:23:42.453Z,76.00
2019-03-15T02:26:12.851Z,76.00
2019-03-15T02:28:43.252Z,75.87
2019-03-15T02:31:13.836Z,75.90
2019-03-15T02:33:44.198Z,75.90
2019-03-15T02:36:14.562Z,75.89
2019-03-15T02:38:45.238Z,75.71
2019-03-15T02:41:15.673Z,75.71
2019-03-15T02:43:46.460Z,75.92
2019-03-15T02:46:16.889Z,75.92
2019-03-15T02:48:47.197Z,75.93
2019-03-15T02:51:17.929Z,75.93
2019-03-15T02:53:48.275Z,75.96
2019-03-15T02:56:18.615Z,75.95
2019-03-15T02:58:49.131Z,75.98
2019-03-15T03:01:19.509Z,75.98
2019-03-15T03:03:50.780Z,75.98
2019-03-15T03:06:21.108Z,75.98
2019-03-15T03:08:51.549Z,75.88
2019-03-15T03:11:21.898Z,75.87
2019-03-15T03:13:52.324Z,76.06
2019-03-15T03:16:22.807Z,76.06
2019-03-15T03:18:54.056Z,76.04
2019-03-15T03:21:24.492Z,76.04
2019-03-15T03:23:54.885Z,76.04
2019-03-15T03:26:25.281Z,76.11
2019-03-15T03:28:55.746Z,75.98
2019-03-15T03:31:26.158Z,76.07
2019-03-15T03:33:56.567Z,76.24
2019-03-15T03:36:26.926Z,76.24
2019-03-15T03:38:58.960Z,76.09
2019-03-15T03:41:31.833Z,75.99
2019-03-15T03:44:05.034Z,75.99
2019-03-15T03:46:37.546Z,76.12
2019-03-15T03:49:07.859Z,76.12
2019-03-15T03:51:38.271Z,76.12
2019-03-15T03:54:08.772Z,76.16
2019-03-15T03:56:39.121Z,76.14
2019-03-15T03:59:09.603Z,76.15
2019-03-15T04:01:40.143Z,76.17
2019-03-15T04:04:10.552Z,76.18
2019-03-15T04:06:40.938Z,76.31
2019-03-15T04:09:14.901Z,76.31
2019-03-15T04:11:55.475Z,76.18
2019-03-15T04:14:17.967Z,76.19
2019-03-15T04:16:51.235Z,76.19
2019-03-15T04:19:22.828Z,76.21
2019-03-15T04:21:55.571Z,76.22
2019-03-15T04:24:27.688Z,76.24
2019-03-15T04:26:58.209Z,76.25
2019-03-15T04:29:29.650Z,76.25
2019-03-15T04:32:00.051Z,76.27
2019-03-15T04:34:30.435Z,76.28
2019-03-15T04:37:00.798Z,76.29
2019-03-15T04:39:31.230Z,76.30
2019-03-15T04:42:05.454Z,76.34
2019-03-15T04:44:36.964Z,76.33
2019-03-15T04:47:09.456Z,76.33
2019-03-15T04:49:39.865Z,76.37
2019-03-15T04:52:10.204Z,76.39
2019-03-15T04:54:41.374Z,76.37
2019-03-15T04:57:11.829Z,76.31
2019-03-15T04:59:42.207Z,76.38
2019-03-15T05:02:12.492Z,76.40
2019-03-15T05:05:04.540Z,76.32
2019-03-15T05:07:36.334Z,76.44
2019-03-15T05:10:06.768Z,76.43
2019-03-15T05:12:37.194Z,76.46
2019-03-15T05:15:08.003Z,76.48
2019-03-15T05:17:38.402Z,76.48
2019-03-15T05:20:09.116Z,76.51
2019-03-15T05:22:39.523Z,76.54
2019-03-15T05:25:10.027Z,76.55
2019-03-15T05:27:40.350Z,76.52
2019-03-15T05:30:16.365Z,76.56
2019-03-15T05:33:02.489Z,76.57
2019-03-15T05:35:34.733Z,76.59
2019-03-15T05:38:05.479Z,76.59
2019-03-15T05:40:36.390Z,76.59
2019-03-15T05:43:07.498Z,76.63
2019-03-15T05:45:51.233Z,76.63
2019-03-15T05:48:25.402Z,76.66
2019-03-15T05:50:57.783Z,76.67
2019-03-15T05:53:33.221Z,76.68
2019-03-15T05:56:08.757Z,76.70
2019-03-15T05:58:49.340Z,76.71
2019-03-15T06:01:24.248Z,76.72
2019-03-15T06:04:17.711Z,76.74
2019-03-15T06:07:49.618Z,76.75
2019-03-15T06:09:58.568Z,76.73
2019-03-15T06:12:58.572Z,76.75
2019-03-15T06:15:53.585Z,76.87
2019-03-15T06:18:30.215Z,76.78
2019-03-15T06:21:15.219Z,76.83
2019-03-15T06:23:55.863Z,76.75
2019-03-15T06:26:37.646Z,76.75
2019-03-15T06:29:21.228Z,76.89
2019-03-15T06:31:55.389Z,76.89
2019-03-15T06:34:35.361Z,76.75
2019-03-15T06:37:04.721Z,76.96
2019-03-15T06:39:36.987Z,76.98
2019-03-15T06:42:11.465Z,77.00
2019-03-15T06:44:41.715Z,77.02
2019-03-15T06:47:16.946Z,77.01
2019-03-15T06:49:49.184Z,77.05
2019-03-15T06:52:33.228Z,77.05
2019-03-15T06:55:23.791Z,77.07
2019-03-15T06:58:01.338Z,77.10
2019-03-15T07:01:34.804Z,77.14
2019-03-15T07:03:22.370Z,77.17
2019-03-15T07:05:54.269Z,77.20
2019-03-15T07:19:37.113Z,77.29
2019-03-15T07:22:28.419Z,77.46
2019-03-15T07:25:39.748Z,77.36
2019-03-15T07:28:30.794Z,77.37
2019-03-15T07:37:52.067Z,77.43
2019-03-15T07:40:44.559Z,77.44
2019-03-15T07:44:00.554Z,77.47
2019-03-15T07:53:08.138Z,77.55
2019-03-15T07:59:29.060Z,77.62
2019-03-15T08:02:42.972Z,77.65
2019-03-15T08:05:56.508Z,77.66
2019-03-15T08:11:42.064Z,77.77
2019-03-15T08:17:55.933Z,77.85
2019-03-15T08:26:57.060Z,77.92
2019-03-15T08:29:52.902Z,77.99
2019-03-15T08:32:50.970Z,78.03
2019-03-15T08:45:22.061Z,78.16
2019-03-15T08:48:11.528Z,78.15
2019-03-15T08:54:19.915Z,78.19
2019-03-15T08:57:46.606Z,78.22
2019-03-15T09:04:21.330Z,78.28
2019-03-15T09:31:09.632Z,78.42
2019-03-15T09:37:06.808Z,78.45
2019-03-15T09:43:46.993Z,78.48
2019-03-15T09:46:49.654Z,78.51
2019-03-15T10:09:45.669Z,78.65
2019-03-15T10:12:29.199Z,78.68
2019-03-15T10:20:57.424Z,78.73
2019-03-15T10:24:25.711Z,78.76
2019-03-15T11:05:22.211Z,78.91
2019-03-15T11:10:10.221Z,78.96
2019-03-15T11:57:00.668Z,79.10
2019-03-15T11:59:46.590Z,79.09
2019-03-15T12:02:39.671Z,79.09
2019-03-15T12:08:22.351Z,79.10
2019-03-15T12:14:26.116Z,79.11
2019-03-15T12:17:31.121Z,79.14
2019-03-15T12:20:44.238Z,79.14
2019-03-15T12:23:51.072Z,79.17
2019-03-15T12:32:49.072Z,79.16
2019-03-15T12:35:34.872Z,79.14
2019-03-15T12:38:27.627Z,79.15
2019-03-15T12:53:27.392Z,79.21
2019-03-15T12:56:32.043Z,79.19
2019-03-15T12:59:13.914Z,79.20
2019-03-15T13:02:03.905Z,79.20
2019-03-15T13:11:36.391Z,79.17
2019-03-15T13:17:11.690Z,79.19
2019-03-15T13:22:59.412Z,79.18
2019-03-15T13:23:35.141Z,79.18
2019-03-15T13:29:27.987Z,79.21
2019-03-15T13:34:57.436Z,79.18
2019-03-15T13:40:43.468Z,79.20
2019-03-15T13:43:35.802Z,79.20
2019-03-15T13:46:21.388Z,79.20
2019-03-15T13:52:24.856Z,79.18
2019-03-15T13:55:17.076Z,79.18
2019-03-15T14:02:25.923Z,79.17
2019-03-15T14:13:12.136Z,79.21
2019-03-15T14:16:06.078Z,79.22
2019-03-15T14:33:48.996Z,79.24
2019-03-15T14:42:52.417Z,79.24
2019-03-15T14:45:43.203Z,79.24
2019-03-15T14:54:45.878Z,79.28
2019-03-15T14:58:00.357Z,79.28
2019-03-15T15:56:11.752Z,79.26
2019-03-15T15:59:11.375Z,79.25
2019-03-15T16:05:26.009Z,79.27
2019-03-15T16:07:58.016Z,79.28
2019-03-15T16:11:14.796Z,79.28
2019-03-15T16:14:13.299Z,79.29
2019-03-15T16:16:53.897Z,79.28
2019-03-15T16:19:54.289Z,79.28
2019-03-15T16:22:36.054Z,79.27
2019-03-15T16:25:38.123Z,79.27
2019-03-15T16:30:44.555Z,79.29
2019-03-15T16:40:49.450Z,79.30
2019-03-15T16:49:43.573Z,79.32
2019-03-15T16:52:18.712Z,79.31
2019-03-15T16:55:42.093Z,79.31
2019-03-15T17:08:34.439Z,79.33
2019-03-15T17:11:25.296Z,79.32
2019-03-15T17:17:52.522Z,79.32
2019-03-15T17:21:08.094Z,79.31
2019-03-15T17:24:32.739Z,79.33
2019-03-15T17:27:05.235Z,79.33
2019-03-15T17:29:37.805Z,79.33
2019-03-15T17:32:08.753Z,79.33
2019-03-15T17:34:39.502Z,79.34
2019-03-15T17:37:10.366Z,79.36
2019-03-15T17:39:43.917Z,79.36
2019-03-15T17:42:13.057Z,79.37
2019-03-15T17:44:45.098Z,79.38
2019-03-15T17:47:21.547Z,79.37
2019-03-15T17:49:59.133Z,79.37
2019-03-15T17:52:29.554Z,79.37
2019-03-15T17:54:59.960Z,79.38
2019-03-15T17:57:32.500Z,79.39
2019-03-15T18:00:23.211Z,79.42
2019-03-15T18:02:53.766Z,79.42
2019-03-15T18:05:24.312Z,79.42
2019-03-15T18:07:55.432Z,79.42
2019-03-15T18:10:26.098Z,79.42
2019-03-15T18:13:00.246Z,79.45
2019-03-15T18:15:37.560Z,79.46
2019-03-15T18:18:08.336Z,79.45
2019-03-15T18:20:39.122Z,79.45
2019-03-15T18:23:21.018Z,79.45
2019-03-15T18:26:13.095Z,79.47
2019-03-15T18:28:49.362Z,79.47
2019-03-15T18:31:24.754Z,79.48
2019-03-15T18:33:56.209Z,79.48
2019-03-15T18:36:28.782Z,79.48
2019-03-15T18:45:49.427Z,79.51
2019-03-15T18:48:22.318Z,79.52
2019-03-15T18:50:53.719Z,79.52
2019-03-15T18:53:27.654Z,79.51
2019-03-15T18:56:00.344Z,79.52
2019-03-15T18:58:31.846Z,79.54
2019-03-15T19:01:08.659Z,79.55
2019-03-15T19:03:42.756Z,79.55
2019-03-15T19:06:14.111Z,79.57
2019-03-15T19:08:47.766Z,79.54
2019-03-15T19:11:22.355Z,79.57
2019-03-15T19:13:55.640Z,79.57
2019-03-15T19:16:26.479Z,79.57
2019-03-15T19:19:01.609Z,79.57
2019-03-15T19:22:02.345Z,79.58
2019-03-15T19:24:43.331Z,79.59
2019-03-15T19:27:51.939Z,79.59
2019-03-15T19:30:30.037Z,79.60
2019-03-15T19:33:01.261Z,79.62
2019-03-15T19:35:37.370Z,79.61
2019-03-15T19:38:22.978Z,79.60
2019-03-15T19:40:55.931Z,79.62
2019-03-15T19:43:29.792Z,79.61
2019-03-15T19:46:04.094Z,79.63
2019-03-15T19:48:44.550Z,79.63
2019-03-15T19:51:14.736Z,79.64
2019-03-15T19:53:47.789Z,79.65
2019-03-15T19:56:19.517Z,79.65
2019-03-15T19:58:50.748Z,79.66
2019-03-15T20:01:28.819Z,79.67
2019-03-15T20:04:09.043Z,79.68
2019-03-15T20:06:49.947Z,79.68
2019-03-15T20:09:21.832Z,79.69
2019-03-15T20:11:52.933Z,79.70
2019-03-15T20:14:23.711Z,79.73
2019-03-15T20:16:56.114Z,79.73
2019-03-15T20:19:26.719Z,79.74
2019-03-15T20:21:57.384Z,79.75
2019-03-15T20:24:29.266Z,79.74
2019-03-15T20:27:01.470Z,79.73
2019-03-15T20:29:34.434Z,79.76
2019-03-15T20:32:06.632Z,79.76
2019-03-15T20:34:38.170Z,79.77
2019-03-15T20:37:11.702Z,79.77
2019-03-15T20:39:42.595Z,79.77
2019-03-15T20:42:27.812Z,79.79
2019-03-15T20:45:02.020Z,79.79
2019-03-15T20:47:36.115Z,79.79
2019-03-15T20:50:06.814Z,79.80
2019-03-15T20:52:37.998Z,79.80
2019-03-15T20:55:10.282Z,79.80
2019-03-15T20:57:40.952Z,79.80
2019-03-15T21:00:13.453Z,79.82
2019-03-15T21:02:44.064Z,79.82
2019-03-15T21:05:14.921Z,79.84
2019-03-15T21:07:45.933Z,79.83
2019-03-15T21:10:22.487Z,79.83
2019-03-15T21:12:55.972Z,79.86
2019-03-15T21:15:26.371Z,79.85
2019-03-15T21:17:59.248Z,79.86
2019-03-15T21:20:32.753Z,79.87
2019-03-15T21:23:03.593Z,79.87
2019-03-15T21:25:38.377Z,79.87
2019-03-15T21:28:11.606Z,79.86
2019-03-15T21:30:48.243Z,79.86
2019-03-15T21:34:26.665Z,79.87
2019-03-15T21:37:04.184Z,79.87
2019-03-15T21:39:35.157Z,79.86
2019-03-15T21:42:06.553Z,79.88
2019-03-15T21:44:40.673Z,79.89
2019-03-15T21:47:12.300Z,79.90
2019-03-15T21:49:42.883Z,79.90
2019-03-15T21:52:13.344Z,79.91
2019-03-15T21:54:46.566Z,79.92
2019-03-15T21:57:27.541Z,79.93
2019-03-15T22:00:03.961Z,79.92
2019-03-15T22:02:34.827Z,79.94
2019-03-15T22:05:05.799Z,79.95
2019-03-15T22:07:37.678Z,79.95
2019-03-15T22:10:14.096Z,79.94
2019-03-15T22:12:44.588Z,79.94
2019-03-15T22:15:15.609Z,79.96
2019-03-15T22:17:46.310Z,79.97
2019-03-15T22:20:18.114Z,79.96
2019-03-15T22:22:48.651Z,79.98
2019-03-15T22:25:19.136Z,80.00
2019-03-15T22:27:50.354Z,79.99
2019-03-15T22:30:21.186Z,79.97
2019-03-15T22:32:52.757Z,80.01
2019-03-15T22:35:23.414Z,80.02
2019-03-15T22:37:54.539Z,80.02
2019-03-15T22:41:03.271Z,80.08
2019-03-15T22:43:34.283Z,80.08
2019-03-15T22:46:05.482Z,80.02
2019-03-15T22:48:45.962Z,80.03
2019-03-15T22:51:13.704Z,80.07
2019-03-15T22:54:08.220Z,80.06
2019-03-15T22:56:50.579Z,80.07
2019-03-15T22:59:21.250Z,80.09
2019-03-15T23:01:51.670Z,80.10
2019-03-15T23:04:22.098Z,80.12
2019-03-15T23:06:52.642Z,80.10
2019-03-15T23:09:23.008Z,80.13
2019-03-15T23:11:55.987Z,80.13
2019-03-15T23:14:26.662Z,80.12
2019-03-15T23:16:57.058Z,80.12
2019-03-15T23:19:34.651Z,80.14
2019-03-15T23:22:06.289Z,80.14
2019-03-15T23:24:37.250Z,80.13
2019-03-15T23:27:07.671Z,80.14
2019-03-15T23:29:38.082Z,80.14
2019-03-15T23:32:08.480Z,80.38
2019-03-15T23:34:39.691Z,80.38
2019-03-15T23:37:10.134Z,80.29
2019-03-15T23:39:40.558Z,80.24
2019-03-15T23:42:12.684Z,80.24
2019-03-15T23:44:43.377Z,80.19
2019-03-15T23:47:16.889Z,80.18
2019-03-15T23:49:47.331Z,80.19
2019-03-15T23:52:18.084Z,80.22
2019-03-15T23:54:48.455Z,80.22
2019-03-15T23:57:18.884Z,80.16
2019-03-15T23:59:49.334Z,80.01
